Time;durP1;ratioP1;P1;durP2;ratioP2;P2;SDS_P1;SDS_P2;PMS_P1;PMS_P2;Temp;Humidity;BMP_temperature;BMP_pressure;BME280_temperature;BME280_humidity;BME280_pressure;Samples;Min_cycle;Max_cycle;Signal;HPM_P1;HPM_P2
2022/11/16 00:01:05;;;;;;;56.60;26.83;;;;;;;7.81;100.00;97840.16;5031331;28;20584;-60
2022/11/16 00:03:31;;;;;;;60.80;28.15;;;;;;;7.89;100.00;97852.78;5038247;28;20056;-61
2022/11/16 00:06:03;;;;;;;57.38;26.08;;;;;;;7.86;100.00;97852.81;5029308;28;20033;-59
2022/11/16 00:08:32;;;;;;;56.78;26.20;;;;;;;7.77;100.00;97834.28;5030757;28;20558;-60
2022/11/16 00:11:16;;;;;;;56.97;28.02;;;;;;;7.80;100.00;97841.03;5028386;28;20045;-62
2022/11/16 00:13:42;;;;;;;57.28;26.75;;;;;;;7.73;100.00;97832.66;5024812;28;20052;-64
2022/11/16 00:16:17;;;;;;;56.28;28.10;;;;;;;7.81;100.00;97841.00;5030892;28;20037;-61
2022/11/16 00:18:43;;;;;;;65.28;28.95;;;;;;;7.76;100.00;97847.06;5029596;28;20072;-62
2022/11/16 00:21:09;;;;;;;58.67;27.77;;;;;;;7.71;100.00;97836.13;5030874;28;20037;-62
2022/11/16 00:23:37;;;;;;;60.08;26.77;;;;;;;7.71;100.00;97836.13;5031033;28;20041;-61
2022/11/16 00:26:11;;;;;;;64.40;29.23;;;;;;;7.67;100.00;97837.91;5029936;28;20499;-63
2022/11/16 00:28:36;;;;;;;69.43;30.58;;;;;;;7.54;100.00;97812.66;5030269;28;20040;-61
2022/11/16 00:31:04;;;;;;;60.20;28.65;;;;;;;7.54;100.00;97817.75;5024948;28;20468;-61
2022/11/16 00:33:30;;;;;;;62.63;28.40;;;;;;;7.61;100.00;97832.91;5022498;28;20041;-61
2022/11/16 00:35:56;;;;;;;59.53;27.02;;;;;;;7.65;100.00;97828.59;5031101;28;20049;-63
2022/11/16 00:38:23;;;;;;;65.43;29.05;;;;;;;7.64;100.00;97832.84;5011338;28;20502;-62
2022/11/16 00:40:49;;;;;;;66.80;30.52;;;;;;;7.53;100.00;97816.09;5029536;28;20040;-62
2022/11/16 00:43:15;;;;;;;63.20;27.63;;;;;;;7.63;100.00;97832.88;5030459;28;20052;-62
2022/11/16 00:45:42;;;;;;;67.28;27.98;;;;;;;7.63;100.00;97832.88;5029992;28;20044;-61
2022/11/16 00:48:07;;;;;;;64.70;28.45;;;;;;;7.65;100.00;97831.97;5007038;28;20557;-61
2022/11/16 00:50:33;;;;;;;59.22;28.05;;;;;;;7.69;100.00;97832.75;5029604;28;20144;-62
2022/11/16 00:52:59;;;;;;;56.90;27.73;;;;;;;7.69;100.00;97841.25;5028769;28;20043;-61
2022/11/16 00:55:26;;;;;;;71.53;30.73;;;;;;;7.71;100.00;97839.53;5043342;28;20045;-62
2022/11/16 00:57:52;;;;;;;58.53;27.73;;;;;;;7.72;100.00;97842.91;5023347;28;20556;-63
2022/11/16 01:00:19;;;;;;;67.20;28.95;;;;;;;7.73;100.00;97837.75;5044719;28;20132;-62
2022/11/16 01:02:45;;;;;;;57.60;27.33;;;;;;;7.68;100.00;97842.09;5026498;28;20147;-62
2022/11/16 01:05:11;;;;;;;59.63;28.08;;;;;;;7.54;100.00;97820.31;5044649;28;20514;-61
2022/11/16 01:07:37;;;;;;;66.32;30.33;;;;;;;7.58;100.00;97825.31;5031826;28;20084;-61
2022/11/16 01:10:06;;;;;;;66.05;27.13;;;;;;;7.68;100.00;97844.66;5024245;28;20052;-61
2022/11/16 01:12:33;;;;;;;64.03;29.52;;;;;;;7.58;100.00;97845.72;5031181;28;20591;-62
2022/11/16 01:14:59;;;;;;;65.75;30.38;;;;;;;7.56;100.00;97833.84;5022862;28;20143;-61
2022/11/16 01:17:25;;;;;;;61.35;29.45;;;;;;;7.50;100.00;97819.53;5030293;28;20563;-61
2022/11/16 01:19:51;;;;;;;64.68;28.60;;;;;;;7.57;100.00;97828.75;5028269;28;20319;-61
2022/11/16 01:22:17;;;;;;;64.22;30.15;;;;;;;7.43;100.00;97800.13;5025196;28;20069;-62
2022/11/16 01:24:45;;;;;;;62.00;26.90;;;;;;;7.55;100.00;97816.91;5023114;28;20132;-60
2022/11/16 01:27:11;;;;;;;58.05;27.00;;;;;;;7.45;100.00;97802.66;5028157;28;20064;-60
2022/11/16 01:29:41;;;;;;;59.00;26.08;;;;;;;7.54;100.00;97810.13;5029376;28;20600;-60
2022/11/16 01:32:07;;;;;;;61.97;27.70;;;;;;;7.57;100.00;97810.88;5030382;28;20111;-60
2022/11/16 01:34:34;;;;;;;60.67;28.38;;;;;;;7.55;100.00;97804.16;5047515;28;20033;-61
2022/11/16 01:37:05;;;;;;;61.55;28.63;;;;;;;7.56;100.00;97799.00;5044826;28;20523;-63
2022/11/16 01:39:34;;;;;;;63.40;27.80;;;;;;;7.58;100.00;97794.72;5027374;28;20042;-63
2022/11/16 01:42:01;;;;;;;60.00;27.77;;;;;;;7.57;100.00;97787.09;5028608;28;20502;-60
2022/11/16 01:44:30;;;;;;;58.15;27.20;;;;;;;7.64;100.00;97783.53;5027445;28;20576;-61
2022/11/16 01:47:07;;;;;;;66.28;30.52;;;;;;;7.63;100.00;97782.72;5046053;28;20135;-63
2022/11/16 01:49:36;;;;;;;60.85;29.70;;;;;;;7.63;100.00;97771.66;5027738;28;20123;-63
2022/11/16 01:52:10;;;;;;;63.45;28.10;;;;;;;7.57;100.00;97753.94;5028525;28;20297;-62
2022/11/16 01:54:42;;;;;;;61.85;26.58;;;;;;;7.67;100.00;97770.72;5020860;28;20144;-61
2022/11/16 01:57:17;;;;;;;68.57;29.40;;;;;;;7.61;100.00;97756.38;5039519;28;20044;-62
2022/11/16 01:59:54;;;;;;;61.67;28.00;;;;;;;7.56;100.00;97736.94;5028027;28;20073;-61
2022/11/16 02:02:21;;;;;;;59.75;27.02;;;;;;;7.67;100.00;97746.06;5044435;28;20128;-62
2022/11/16 02:04:49;;;;;;;60.25;27.42;;;;;;;7.68;100.00;97749.47;5041727;28;20073;-60
2022/11/16 02:11:03;;;;;;;64.68;31.77;;;;;;;7.67;100.00;97743.50;5042305;28;20072;-60
2022/11/16 02:13:36;;;;;;;54.47;27.55;;;;;;;7.63;100.00;97729.16;5027673;28;20049;-60
2022/11/16 02:16:24;;;;;;;61.25;27.77;;;;;;;7.69;100.00;97734.09;5028742;28;20051;-60
2022/11/16 02:18:59;;;;;;;61.88;26.98;;;;;;;7.66;100.00;97733.34;5013090;28;20057;-61
2022/11/16 02:21:30;;;;;;;56.73;27.70;;;;;;;7.70;100.00;97722.19;5004504;28;20033;-61
2022/11/16 02:24:13;;;;;;;58.20;27.50;;;;;;;7.68;100.00;97709.47;5029380;28;20280;-65
2022/11/16 02:27:00;;;;;;;59.53;26.15;;;;;;;7.54;100.00;97688.53;5030040;28;20037;-60
2022/11/16 02:29:32;;;;;;;62.05;27.20;;;;;;;7.66;100.00;97707.81;5033214;28;20045;-59
2022/11/16 02:32:04;;;;;;;66.18;27.63;;;;;;;7.68;100.00;97706.09;5029703;28;20048;-62
2022/11/16 02:34:36;;;;;;;61.53;28.00;;;;;;;7.67;100.00;97700.16;5028654;28;20272;-61
2022/11/16 02:37:05;;;;;;;63.63;28.15;;;;;;;7.66;100.00;97695.06;5030913;28;20037;-61
2022/11/16 02:39:33;;;;;;;54.22;25.73;;;;;;;7.59;100.00;97675.69;5030389;28;20044;-60
2022/11/16 02:42:01;;;;;;;54.53;28.08;;;;;;;7.54;100.00;97680.88;5048163;28;20045;-62
2022/11/16 02:44:35;;;;;;;62.10;28.65;;;;;;;7.57;100.00;97692.72;5029870;28;20477;-60
2022/11/16 02:47:06;;;;;;;53.97;26.48;;;;;;;7.63;100.00;97692.59;5048172;28;20044;-60
2022/11/16 02:49:36;;;;;;;51.88;27.42;;;;;;;7.64;100.00;97699.34;5031491;28;20577;-61
2022/11/16 02:52:03;;;;;;;59.70;26.08;;;;;;;7.51;100.00;97670.72;5047627;28;20094;-60
2022/11/16 02:54:29;;;;;;;61.10;27.25;;;;;;;7.65;100.00;97693.38;5031722;28;20041;-61
2022/11/16 02:57:01;;;;;;;52.85;25.65;;;;;;;7.66;100.00;97692.53;5029926;28;20053;-61
2022/11/16 02:59:36;;;;;;;64.05;27.38;;;;;;;7.66;100.00;97692.53;5029636;28;20068;-61
2022/11/16 03:02:27;;;;;;;55.03;27.20;;;;;;;7.65;100.00;97690.84;5044623;28;20132;-60
2022/11/16 03:05:03;;;;;;;57.78;25.20;;;;;;;7.65;100.00;97690.84;5027650;28;20033;-62
2022/11/16 03:07:44;;;;;;;53.67;26.52;;;;;;;7.62;100.00;97693.47;5030413;28;20175;-61
2022/11/16 03:11:57;;;;;;;51.45;25.95;;;;;;;7.62;100.00;97693.47;5047978;28;20041;-61
2022/11/16 03:13:00;;;;;;;53.63;27.42;;;;;;;7.57;100.00;97693.56;5028354;28;20047;-60
2022/11/16 03:15:26;;;;;;;51.83;24.55;;;;;;;7.61;100.00;97694.31;5031348;28;20037;-60
2022/11/16 03:17:53;;;;;;;59.42;26.80;;;;;;;7.47;100.00;97678.50;5030760;28;20298;-61
2022/11/16 03:20:26;;;;;;;55.55;24.95;;;;;;;7.59;100.00;97696.94;5026133;28;20564;-59
2022/11/16 03:22:55;;;;;;;56.22;26.42;;;;;;;7.58;100.00;97692.69;5033146;28;20045;-61
2022/11/16 03:25:27;;;;;;;63.60;25.98;;;;;;;7.59;100.00;97685.88;5051520;28;20041;-59
2022/11/16 03:28:26;;;;;;;61.67;26.00;;;;;;;7.52;100.00;97671.56;5047414;28;20041;-62
2022/11/16 03:30:59;;;;;;;50.53;25.27;;;;;;;7.61;100.00;97684.13;5043708;28;20086;-59
2022/11/16 03:33:36;;;;;;;53.47;25.45;;;;;;;7.60;100.00;97685.00;5030050;28;20044;-61
2022/11/16 03:36:11;;;;;;;59.45;26.30;;;;;;;7.49;100.00;97653.81;5028431;28;20723;-60
2022/11/16 03:38:39;;;;;;;57.47;27.38;;;;;;;7.62;100.00;97673.06;5034816;28;20041;-60
2022/11/16 03:41:09;;;;;;;58.78;28.63;;;;;;;7.61;100.00;97663.72;5027515;28;20045;-61
2022/11/16 03:43:37;;;;;;;54.30;24.52;;;;;;;7.58;100.00;97658.69;5028486;28;20040;-60
2022/11/16 03:46:04;;;;;;;53.25;25.33;;;;;;;7.57;100.00;97665.50;5028782;28;20549;-61
2022/11/16 03:48:35;;;;;;;59.40;26.23;;;;;;;7.54;100.00;97657.09;5041580;28;20072;-59
2022/11/16 03:51:03;;;;;;;51.65;24.40;;;;;;;7.51;100.00;97640.13;5046893;28;20038;-60
2022/11/16 03:53:29;;;;;;;52.90;25.80;;;;;;;7.42;100.00;97635.25;5046624;28;20088;-62
2022/11/16 03:55:55;;;;;;;57.03;26.30;;;;;;;7.53;100.00;97637.56;5030372;28;20460;-63
2022/11/16 03:58:22;;;;;;;53.30;25.73;;;;;;;7.47;100.00;97630.06;5045986;28;20057;-66
2022/11/16 04:00:47;;;;;;;44.78;23.10;;;;;;;7.55;100.00;97623.06;5030023;28;20041;-60
2022/11/16 04:03:13;;;;;;;38.72;19.63;;;;;;;8.12;100.00;97619.09;5027397;28;20087;-60
2022/11/16 04:25:13;;;;;;;26.50;14.80;;;;;;;7.98;100.00;97580.31;5045914;28;20037;-62
2022/11/16 04:30:23;;;;;;;44.08;22.55;;;;;;;7.94;100.00;97598.28;5030771;28;20037;-61
2022/11/16 04:38:18;;;;;;;50.05;28.08;;;;;;;8.02;100.00;97606.63;5027905;28;20504;-61
2022/11/16 04:40:44;;;;;;;34.22;20.45;;;;;;;7.84;100.00;97605.34;5032138;28;20440;-59
2022/11/16 04:43:11;;;;;;;32.28;19.42;;;;;;;7.75;100.00;97600.47;5028733;28;20045;-60
2022/11/16 04:48:32;;;;;;;27.40;17.60;;;;;;;8.27;100.00;97587.22;5022631;28;20708;-61
2022/11/16 04:50:58;;;;;;;30.67;18.20;;;;;;;8.26;100.00;97591.50;5045551;28;20053;-59
2022/11/16 04:53:26;;;;;;;27.10;18.33;;;;;;;8.17;100.00;97583.25;5045943;28;20073;-60
2022/11/16 04:56:00;;;;;;;26.10;16.90;;;;;;;8.32;100.00;97585.41;5039545;28;20091;-61
2022/11/16 04:58:25;;;;;;;23.13;14.38;;;;;;;8.41;100.00;97577.50;5027991;28;20057;-59
2022/11/16 05:00:52;;;;;;;24.98;14.75;;;;;;;8.23;100.00;97575.44;5045928;28;20404;-60
2022/11/16 05:03:19;;;;;;;29.23;15.63;;;;;;;8.09;100.00;97585.16;5022288;28;20125;-61
2022/11/16 05:05:44;;;;;;;26.58;15.35;;;;;;;7.84;100.00;97566.25;5022972;28;20325;-60
2022/11/16 05:08:11;;;;;;;28.52;16.33;;;;;;;7.85;100.00;97588.34;5024072;28;20048;-61
2022/11/16 05:10:37;;;;;;;24.77;13.80;;;;;;;7.73;100.00;97581.81;5022705;28;20045;-60
2022/11/16 05:13:02;;;;;;;21.58;14.18;;;;;;;7.62;100.00;97582.06;5029083;28;20130;-60
2022/11/16 05:15:28;;;;;;;26.05;14.20;;;;;;;7.61;100.00;97585.50;5029497;28;20049;-61
2022/11/16 05:17:56;;;;;;;22.70;14.52;;;;;;;7.57;100.00;97585.59;5026543;28;20037;-61
2022/11/16 05:24:32;;;;;;;21.60;13.23;;;;;;;7.46;100.00;97585.03;5029891;28;20072;-60
2022/11/16 05:25:55;;;;;;;26.02;14.40;;;;;;;7.41;100.00;97576.66;5024067;28;20049;-63
2022/11/16 05:28:21;;;;;;;23.60;14.43;;;;;;;7.45;100.00;97583.34;5046661;28;20080;-61
2022/11/16 05:30:46;;;;;;;28.75;15.98;;;;;;;7.30;100.00;97557.31;5012794;28;20080;-61
2022/11/16 05:33:17;;;;;;;31.75;19.38;;;;;;;7.38;100.00;97585.22;5026857;28;20053;-62
2022/11/16 05:35:43;;;;;;;28.17;17.20;;;;;;;7.35;100.00;97581.00;5039394;28;20041;-61
2022/11/16 05:38:08;;;;;;;23.45;16.10;;;;;;;7.34;100.00;97566.56;5023554;28;20056;-61
2022/11/16 05:40:39;;;;;;;31.00;17.02;;;;;;;7.36;100.00;97571.66;5008570;28;20046;-61
2022/11/16 05:43:05;;;;;;;24.67;14.93;;;;;;;7.37;100.00;97567.41;5027980;28;20095;-62
2022/11/16 05:45:36;;;;;;;24.23;14.77;;;;;;;7.32;100.00;97564.94;5022879;28;20044;-60
2022/11/16 05:48:02;;;;;;;26.98;15.35;;;;;;;7.31;100.00;97566.66;5029324;28;20158;-60
2022/11/16 05:50:28;;;;;;;27.73;15.68;;;;;;;7.32;100.00;97564.94;5029188;28;20148;-61
2022/11/16 05:53:07;;;;;;;28.88;16.25;;;;;;;7.25;100.00;97548.13;5005031;28;20041;-61
2022/11/16 05:55:34;;;;;;;28.58;15.73;;;;;;;7.33;100.00;97566.63;5044092;28;20052;-61
2022/11/16 05:58:00;;;;;;;25.75;16.17;;;;;;;7.31;100.00;97563.25;5040123;28;20037;-64
2022/11/16 06:00:25;;;;;;;29.75;18.63;;;;;;;7.21;100.00;97554.16;5027785;28;20087;-60
2022/11/16 06:02:52;;;;;;;23.20;14.68;;;;;;;7.29;100.00;97572.69;5029183;28;20056;-61
2022/11/16 06:05:25;;;;;;;24.23;15.38;;;;;;;7.29;100.00;97568.41;5050299;28;20168;-61
2022/11/16 06:07:53;;;;;;;22.88;13.80;;;;;;;7.30;100.00;97571.78;5036435;28;20053;-62
2022/11/16 06:10:18;;;;;;;24.67;14.05;;;;;;;7.13;100.00;97546.69;5033003;28;20037;-64
2022/11/16 06:12:47;;;;;;;23.83;15.15;;;;;;;7.22;100.00;97564.31;5043757;28;20500;-61
2022/11/16 06:15:13;;;;;;;28.27;16.48;;;;;;;7.14;100.00;97561.09;5031784;28;20056;-65
2022/11/16 06:17:39;;;;;;;25.17;14.82;;;;;;;7.14;100.00;97576.41;5047550;28;20045;-62
2022/11/16 06:20:06;;;;;;;26.10;13.75;;;;;;;7.15;100.00;97577.25;5045171;28;20123;-62
2022/11/16 06:22:32;;;;;;;39.58;21.60;;;;;;;7.08;100.00;97571.44;5035939;28;20103;-62
2022/11/16 06:24:57;;;;;;;133.80;68.40;;;;;;;7.05;100.00;97574.03;5051481;28;20033;-63
2022/11/16 06:27:24;;;;;;;92.20;44.08;;;;;;;7.07;100.00;97574.03;5025497;28;20114;-62
2022/11/16 06:29:50;;;;;;;42.90;25.67;;;;;;;7.06;100.00;97572.34;5034364;28;20045;-62
2022/11/16 06:32:16;;;;;;;34.80;23.92;;;;;;;6.95;100.00;97548.81;5032915;28;20041;-63
2022/11/16 06:34:41;;;;;;;29.45;19.75;;;;;;;7.09;100.00;97569.72;5025824;28;20436;-63
2022/11/16 06:37:08;;;;;;;25.35;16.35;;;;;;;7.14;100.00;97560.25;5022159;28;20045;-62
2022/11/16 06:39:34;;;;;;;23.10;14.20;;;;;;;7.18;100.00;97555.06;5045063;28;20076;-62
2022/11/16 06:42:00;;;;;;;27.67;17.02;;;;;;;7.12;100.00;97534.00;5027802;28;20038;-62
2022/11/16 06:44:26;;;;;;;25.55;15.98;;;;;;;7.27;100.00;97551.47;5030565;28;20049;-62
2022/11/16 06:46:57;;;;;;;25.92;15.63;;;;;;;7.28;100.00;97540.41;5008943;28;20041;-66
2022/11/16 06:49:23;;;;;;;22.98;14.95;;;;;;;7.23;100.00;97540.50;5023253;28;20057;-62
2022/11/16 06:51:50;;;;;;;22.92;14.95;;;;;;;7.20;100.00;97544.84;5040082;28;20054;-62
2022/11/16 06:54:16;;;;;;;26.45;14.40;;;;;;;7.23;100.00;97544.75;5029767;28;20076;-62
2022/11/16 06:56:42;;;;;;;23.55;14.85;;;;;;;7.28;100.00;97545.50;5047104;28;20059;-61
2022/11/16 06:59:07;;;;;;;28.00;16.38;;;;;;;7.25;100.00;97545.59;5048309;28;20472;-60
2022/11/16 07:01:33;;;;;;;24.70;14.93;;;;;;;7.24;100.00;97547.28;5030858;28;20120;-61
2022/11/16 07:04:10;;;;;;;22.57;13.37;;;;;;;7.12;100.00;97521.25;5045372;28;20128;-61
2022/11/16 07:06:39;;;;;;;29.67;18.33;;;;;;;7.23;100.00;97540.50;5031134;28;20576;-60
2022/11/16 07:09:06;;;;;;;22.95;13.98;;;;;;;7.29;100.00;97534.44;5029628;28;20073;-61
2022/11/16 07:11:33;;;;;;;26.30;15.07;;;;;;;7.18;100.00;97506.63;5032319;28;20102;-61
2022/11/16 07:13:59;;;;;;;27.15;15.18;;;;;;;7.26;100.00;97527.69;5026811;28;20438;-62
2022/11/16 07:16:25;;;;;;;21.98;13.55;;;;;;;7.26;100.00;97524.28;5047116;28;20138;-61
2022/11/16 07:18:57;;;;;;;26.73;16.33;;;;;;;7.28;100.00;97520.84;5048114;28;20025;-61
2022/11/16 07:21:24;;;;;;;28.40;19.58;;;;;;;7.19;100.00;97497.28;5046432;28;20496;-61
2022/11/16 07:23:53;;;;;;;23.15;14.18;;;;;;;7.31;100.00;97515.66;5043126;28;20045;-61
2022/11/16 07:26:20;;;;;;;23.00;14.38;;;;;;;7.32;100.00;97516.50;5029568;28;20136;-61
2022/11/16 07:28:54;;;;;;;21.50;14.03;;;;;;;7.38;100.00;97520.63;5024255;28;20573;-62
2022/11/16 07:31:21;;;;;;;22.65;13.60;;;;;;;7.34;100.00;97518.13;5029285;28;20045;-61
2022/11/16 07:34:04;;;;;;;25.17;15.93;;;;;;;7.41;100.00;97528.19;5044571;28;20044;-61
2022/11/16 07:36:53;;;;;;;24.33;15.15;;;;;;;7.31;100.00;97513.13;5026414;28;20127;-62
2022/11/16 07:39:20;;;;;;;20.98;14.18;;;;;;;7.39;100.00;97524.84;5045692;28;20041;-62
2022/11/16 07:41:49;;;;;;;26.48;15.10;;;;;;;7.48;100.00;97527.16;5026250;28;20041;-62
2022/11/16 07:44:43;;;;;;;19.95;13.82;;;;;;;7.45;100.00;97527.25;5031652;28;20037;-62
2022/11/16 07:47:09;;;;;;;21.40;13.55;;;;;;;7.46;100.00;97519.56;5027701;28;20037;-60
2022/11/16 07:49:35;;;;;;;23.88;14.57;;;;;;;7.44;100.00;97528.97;5025919;28;20057;-62
2022/11/16 07:52:22;;;;;;;27.15;16.80;;;;;;;7.33;100.00;97511.38;5018716;28;20458;-61
2022/11/16 07:55:00;;;;;;;25.77;16.85;;;;;;;7.44;100.00;97528.97;5044700;28;20040;-62
2022/11/16 07:57:28;;;;;;;24.63;14.98;;;;;;;7.46;100.00;97537.41;4997915;28;20033;-61
2022/11/16 07:59:59;;;;;;;20.85;13.30;;;;;;;7.30;100.00;97505.50;5018945;28;20041;-60
2022/11/16 08:02:44;;;;;;;20.73;13.48;;;;;;;7.29;100.00;97512.34;5026686;28;20083;-64
2022/11/16 08:05:15;;;;;;;20.25;12.75;;;;;;;7.29;100.00;97508.94;5029192;28;20073;-63
2022/11/16 08:07:41;;;;;;;21.60;14.10;;;;;;;7.37;100.00;97518.94;5040911;28;20120;-62
2022/11/16 08:10:07;;;;;;;23.75;13.48;;;;;;;7.38;100.00;97507.88;5018375;28;20076;-62
2022/11/16 08:12:33;;;;;;;21.40;13.25;;;;;;;7.38;100.00;97498.53;5027079;28;20423;-62
2022/11/16 08:14:59;;;;;;;21.13;13.68;;;;;;;7.45;100.00;97499.19;5030636;28;20047;-62
2022/11/16 08:17:25;;;;;;;21.63;13.38;;;;;;;7.57;100.00;97511.66;5030231;28;20049;-63
2022/11/16 08:19:52;;;;;;;25.65;14.18;;;;;;;7.63;100.00;97514.06;5046450;28;20045;-63
2022/11/16 08:22:18;;;;;;;26.30;14.80;;;;;;;7.67;100.00;97513.94;5022938;28;20065;-63
2022/11/16 08:24:45;;;;;;;23.90;15.00;;;;;;;7.59;100.00;97502.25;5043933;28;20168;-63
2022/11/16 08:27:14;;;;;;;27.63;14.68;;;;;;;7.64;100.00;97514.00;5028326;28;20049;-63
2022/11/16 08:29:40;;;;;;;24.02;13.43;;;;;;;7.56;100.00;97494.66;5026372;28;20537;-61
2022/11/16 08:32:07;;;;;;;25.85;14.73;;;;;;;7.62;100.00;97522.56;5026247;28;20037;-61
2022/11/16 08:34:34;;;;;;;22.83;11.95;;;;;;;7.72;100.00;97516.38;5028368;28;20033;-62
2022/11/16 08:36:59;;;;;;;21.83;13.02;;;;;;;7.69;100.00;97499.41;5028132;28;20512;-61
2022/11/16 08:39:36;;;;;;;24.10;12.48;;;;;;;7.53;100.00;97515.16;5028575;28;20048;-61
2022/11/16 08:42:03;;;;;;;26.60;14.48;;;;;;;7.54;100.00;97521.94;5025712;28;20068;-64
2022/11/16 08:44:28;;;;;;;29.05;17.35;;;;;;;7.55;100.00;97510.88;5028219;28;20096;-62
2022/11/16 08:46:56;;;;;;;27.30;14.35;;;;;;;7.53;100.00;97525.34;5028718;28;20055;-62
2022/11/16 08:49:36;;;;;;;26.52;13.63;;;;;;;7.48;100.00;97530.56;5014497;28;20117;-62
2022/11/16 08:52:03;;;;;;;28.60;15.50;;;;;;;7.50;100.00;97540.72;5042408;28;20041;-62
2022/11/16 08:54:30;;;;;;;28.77;14.98;;;;;;;7.47;100.00;97543.38;5046777;28;20129;-62
2022/11/16 08:56:56;;;;;;;24.15;14.27;;;;;;;7.47;100.00;97544.19;5032572;28;20029;-63
2022/11/16 08:59:22;;;;;;;25.40;15.98;;;;;;;7.51;100.00;97543.22;5040340;28;20042;-61
2022/11/16 09:01:50;;;;;;;30.73;16.20;;;;;;;7.40;100.00;97542.66;5023961;28;20045;-61
2022/11/16 09:04:17;;;;;;;28.80;16.35;;;;;;;7.46;100.00;97539.13;5029604;28;20045;-62
2022/11/16 09:06:43;;;;;;;32.00;16.75;;;;;;;7.45;100.00;97538.28;5031555;28;20049;-62
2022/11/16 09:09:09;;;;;;;29.95;16.67;;;;;;;7.49;100.00;97536.50;5029464;28;20049;-61
2022/11/16 09:11:35;;;;;;;29.50;16.17;;;;;;;7.43;100.00;97542.56;5031932;28;20041;-62
2022/11/16 09:14:01;;;;;;;29.90;16.67;;;;;;;7.35;100.00;97536.81;5023616;28;20566;-62
2022/11/16 09:16:27;;;;;;;29.00;16.10;;;;;;;7.34;100.00;97533.44;5030218;28;20072;-61
2022/11/16 09:18:54;;;;;;;35.95;16.40;;;;;;;7.47;100.00;97530.63;5029392;28;20138;-62
2022/11/16 09:21:23;;;;;;;32.92;17.08;;;;;;;7.65;100.00;97542.91;5027842;28;20549;-62
2022/11/16 09:23:49;;;;;;;25.55;15.55;;;;;;;7.51;100.00;97544.97;5028796;28;20060;-61
2022/11/16 09:26:17;;;;;;;31.77;16.20;;;;;;;7.61;100.00;97551.50;5028683;28;20057;-63
2022/11/16 09:28:43;;;;;;;34.72;18.30;;;;;;;7.59;100.00;97549.00;5022384;28;20477;-63
2022/11/16 09:31:09;;;;;;;28.70;16.30;;;;;;;7.55;100.00;97552.50;5021666;28;20088;-62
2022/11/16 09:33:35;;;;;;;27.90;15.48;;;;;;;7.67;100.00;97561.56;5022951;28;20064;-62
2022/11/16 09:36:06;;;;;;;24.80;15.75;;;;;;;7.67;100.00;97561.56;5028381;28;20037;-62
2022/11/16 09:38:45;;;;;;;27.27;14.95;;;;;;;7.68;100.00;97547.94;5035204;28;20099;-62
2022/11/16 09:41:13;;;;;;;27.80;15.30;;;;;;;7.71;100.00;97535.94;5032291;28;20053;-62
2022/11/16 09:43:47;;;;;;;29.45;16.88;;;;;;;7.81;100.00;97534.81;5032031;28;20108;-62
2022/11/16 09:46:35;;;;;;;27.75;16.75;;;;;;;7.82;100.00;97554.34;5032711;28;20501;-61
2022/11/16 09:49:08;;;;;;;27.38;14.88;;;;;;;7.91;100.00;97544.78;5032095;28;20061;-62
2022/11/16 09:51:37;;;;;;;34.85;17.92;;;;;;;7.88;100.00;97561.03;5031824;28;20067;-62
2022/11/16 09:54:18;;;;;;;28.85;17.58;;;;;;;7.84;100.00;97550.94;5009962;28;20052;-62
2022/11/16 09:56:49;;;;;;;29.40;15.65;;;;;;;7.86;100.00;97546.59;5031654;28;20063;-62
2022/11/16 09:59:24;;;;;;;33.13;15.75;;;;;;;7.92;100.00;97554.13;5031404;28;20124;-62
2022/11/16 10:01:56;;;;;;;33.78;17.75;;;;;;;7.63;100.00;97537.84;5032207;28;20049;-62
2022/11/16 10:04:38;;;;;;;29.85;15.48;;;;;;;7.89;100.00;97531.25;5032407;28;20045;-61
2022/11/16 10:07:21;;;;;;;26.40;15.05;;;;;;;7.89;100.00;97539.75;5032049;28;20639;-62
2022/11/16 10:09:47;;;;;;;30.92;15.77;;;;;;;7.87;100.00;97521.06;5049517;28;20057;-65
2022/11/16 10:12:27;;;;;;;31.67;17.00;;;;;;;7.80;100.00;97524.66;5047782;28;20072;-62
2022/11/16 10:15:06;;;;;;;33.90;17.17;;;;;;;8.03;100.00;97539.34;5033793;28;20033;-62
2022/11/16 10:17:46;;;;;;;29.77;15.00;;;;;;;8.16;100.00;97540.72;5032782;28;20076;-65
2022/11/16 10:20:47;;;;;;;24.70;14.30;;;;;;;8.22;100.00;97536.28;5031970;28;20052;-64
2022/11/16 10:23:34;;;;;;;27.13;14.50;;;;;;;8.18;100.00;97537.25;5031896;28;20055;-64
2022/11/16 10:26:23;;;;;;;28.63;13.60;;;;;;;8.23;100.00;97543.03;5029599;28;20072;-66
2022/11/16 10:28:59;;;;;;;24.63;13.07;;;;;;;8.33;100.00;97537.72;5025218;28;20772;-64
2022/11/16 10:31:51;;;;;;;23.67;13.32;;;;;;;8.35;100.00;97530.88;5031136;28;20472;-64
2022/11/16 10:34:23;;;;;;;21.35;11.77;;;;;;;8.35;100.00;97523.22;5032434;28;20037;-64
2022/11/16 10:36:49;;;;;;;19.20;11.32;;;;;;;8.18;100.00;97519.38;5030671;28;20087;-65
2022/11/16 10:39:18;;;;;;;22.60;11.13;;;;;;;8.34;100.00;97524.09;5033204;28;20546;-66
2022/11/16 10:41:49;;;;;;;19.65;11.60;;;;;;;8.18;100.00;97516.84;5032845;28;20091;-63
2022/11/16 10:44:37;;;;;;;22.00;11.50;;;;;;;8.32;100.00;97519.00;5046087;28;20045;-63
2022/11/16 10:47:18;;;;;;;19.48;12.05;;;;;;;8.37;100.00;97521.44;5043780;28;20517;-62
2022/11/16 10:50:00;;;;;;;20.63;10.77;;;;;;;8.34;100.00;97513.88;5032330;28;20159;-63
2022/11/16 10:52:27;;;;;;;24.50;11.60;;;;;;;8.28;100.00;97518.22;5045445;28;20044;-63
2022/11/16 10:54:52;;;;;;;19.73;8.77;;;;;;;8.20;100.00;97496.34;5029341;28;20035;-63
2022/11/16 10:57:19;;;;;;;16.02;9.13;;;;;;;8.34;100.00;97511.31;5032847;28;20401;-63
2022/11/16 10:59:44;;;;;;;19.13;10.27;;;;;;;8.37;100.00;97506.13;5033824;28;20457;-66
2022/11/16 11:02:30;;;;;;;18.98;10.77;;;;;;;8.36;100.00;97507.81;5031809;28;20053;-64
2022/11/16 11:05:21;;;;;;;20.70;11.30;;;;;;;8.54;100.00;97507.31;5025551;28;20049;-63
2022/11/16 11:08:00;;;;;;;15.50;8.90;;;;;;;8.62;100.00;97499.41;5025691;28;20060;-64
2022/11/16 11:10:32;;;;;;;19.75;10.23;;;;;;;8.62;100.00;97504.53;5025022;28;20397;-64
2022/11/16 11:13:06;;;;;;;13.50;8.20;;;;;;;8.61;100.00;97511.34;5025284;28;20408;-61
2022/11/16 11:15:32;;;;;;;14.23;8.80;;;;;;;8.55;100.00;97509.00;5028567;28;20049;-62
2022/11/16 11:18:10;;;;;;;14.63;7.78;;;;;;;8.52;100.00;97503.97;5030337;28;20017;-63
2022/11/16 11:20:37;;;;;;;12.25;7.38;;;;;;;8.51;100.00;97489.53;5030773;28;20052;-63
2022/11/16 11:23:12;;;;;;;12.82;6.80;;;;;;;8.52;100.00;97509.09;5031661;28;20080;-64
2022/11/16 11:26:00;;;;;;;12.35;7.18;;;;;;;8.46;100.00;97505.84;5045624;28;20033;-64
2022/11/16 11:28:35;;;;;;;13.77;8.82;;;;;;;8.27;100.00;97505.53;5029178;28;20083;-64
2022/11/16 11:31:24;;;;;;;14.63;8.77;;;;;;;8.14;100.00;97497.38;5030237;28;20500;-64
2022/11/16 11:34:02;;;;;;;12.30;7.75;;;;;;;8.08;100.00;97499.25;5029137;28;20484;-62
2022/11/16 11:36:41;;;;;;;16.20;7.72;;;;;;;7.90;100.00;97487.81;5024317;28;20042;-64
2022/11/16 11:39:27;;;;;;;14.40;8.07;;;;;;;7.84;100.00;97492.25;5030267;28;20076;-63
2022/11/16 11:42:01;;;;;;;;;;;;;;;7.87;100.00;97490.44;5030673;28;20084;-63
2022/11/16 11:44:36;;;;;;;14.52;8.52;;;;;;;7.93;100.00;97499.66;5028596;28;20534;-63
2022/11/16 11:47:36;;;;;;;16.55;8.50;;;;;;;7.72;100.00;97475.56;5030084;28;20545;-63
2022/11/16 11:50:41;;;;;;;14.30;8.32;;;;;;;7.80;100.00;97497.44;5037884;28;20053;-62
2022/11/16 11:53:31;;;;;;;16.35;8.70;;;;;;;7.91;100.00;97498.84;4993086;28;20507;-64
2022/11/16 11:55:58;;;;;;;15.88;9.02;;;;;;;7.68;100.00;97499.47;5025480;28;21037;-63
2022/11/16 11:58:31;;;;;;;17.83;8.70;;;;;;;7.72;100.00;97496.78;5030897;28;20145;-64
2022/11/16 12:01:15;;;;;;;15.68;10.65;;;;;;;7.77;100.00;97505.16;5030111;28;20485;-65
2022/11/16 12:03:44;;;;;;;12.45;8.32;;;;;;;7.76;100.00;97495.00;5029930;28;20049;-63
2022/11/16 12:06:21;;;;;;;12.82;7.22;;;;;;;7.65;100.00;97479.13;5032393;28;20381;-64
2022/11/16 12:08:49;;;;;;;14.85;8.27;;;;;;;7.81;100.00;97493.16;5047084;28;20093;-64
2022/11/16 12:11:34;;;;;;;14.63;8.15;;;;;;;7.82;100.00;97487.19;5029255;28;20041;-63
2022/11/16 12:14:21;;;;;;;17.08;9.35;;;;;;;7.75;100.00;97495.88;5031858;28;20383;-63